Time;durP1;ratioP1;P1;durP2;ratioP2;P2;SDS_P1;SDS_P2;PMS_P1;PMS_P2;Temp;Humidity;BMP_temperature;BMP_pressure;BME280_temperature;BME280_humidity;BME280_pressure;Samples;Min_cycle;Max_cycle;Signal;HPM_P1;HPM_P2
2022/03/15 00:00:19;;;;;;;13.32;5.70;;;4.10;99.90;;;;;;6030447;23;20012;-37
2022/03/15 00:03:46;;;;;;;19.13;6.63;;;4.10;99.90;;;;;;6005492;23;20399;-37
2022/03/15 00:07:15;;;;;;;14.27;6.60;;;4.10;99.90;;;;;;5980556;23;20023;-37
2022/03/15 00:10:36;;;;;;;20.40;6.22;;;4.10;99.90;;;;;;6002719;23;20466;-37
2022/03/15 00:14:03;;;;;;;16.65;5.80;;;4.10;99.90;;;;;;6006114;23;20482;-37
2022/03/15 00:17:27;;;;;;;15.60;6.45;;;4.00;99.90;;;;;;6003148;23;20071;-37
2022/03/15 00:20:54;;;;;;;20.70;7.57;;;4.00;99.90;;;;;;6006078;23;20021;-37
2022/03/15 00:24:22;;;;;;;16.55;7.25;;;4.00;99.90;;;;;;6005399;23;20355;-37
2022/03/15 00:27:45;;;;;;;18.08;6.78;;;4.00;99.90;;;;;;6032033;23;20023;-38
2022/03/15 00:31:11;;;;;;;19.73;7.55;;;4.00;99.90;;;;;;6004756;23;20053;-37
2022/03/15 00:34:37;;;;;;;13.30;7.43;;;4.00;99.90;;;;;;6003076;23;20023;-37
2022/03/15 00:38:03;;;;;;;13.40;6.57;;;4.00;99.90;;;;;;5981916;23;20115;-37
2022/03/15 00:41:29;;;;;;;15.40;7.93;;;3.90;99.90;;;;;;5979692;23;20355;-37
2022/03/15 00:45:04;;;;;;;18.90;7.10;;;3.90;99.90;;;;;;6003828;23;20025;-37
2022/03/15 00:48:23;;;;;;;15.63;7.00;;;3.90;99.90;;;;;;5980238;23;20255;-37
2022/03/15 00:51:50;;;;;;;12.98;7.13;;;3.80;99.90;;;;;;6005400;23;20015;-37
2022/03/15 00:55:15;;;;;;;13.70;7.32;;;3.80;99.90;;;;;;5982640;23;20023;-37
2022/03/15 00:58:38;;;;;;;20.67;7.65;;;3.80;99.90;;;;;;6003636;23;20095;-37
2022/03/15 01:02:05;;;;;;;14.15;6.55;;;3.70;99.90;;;;;;6000367;23;20391;-37
2022/03/15 01:05:31;;;;;;;15.23;6.60;;;3.70;99.90;;;;;;6002329;23;20019;-37
2022/03/15 01:08:58;;;;;;;20.63;7.60;;;3.70;99.90;;;;;;5982431;23;20015;-37
2022/03/15 01:12:23;;;;;;;15.95;6.97;;;3.60;99.90;;;;;;6003153;23;20016;-37
2022/03/15 01:15:50;;;;;;;15.93;7.22;;;3.60;99.90;;;;;;6031947;23;20094;-37
2022/03/15 01:19:16;;;;;;;20.92;7.43;;;3.60;99.90;;;;;;6032470;23;20422;-37
2022/03/15 01:22:41;;;;;;;15.50;7.20;;;3.60;99.90;;;;;;6029928;23;20030;-37
2022/03/15 01:26:06;;;;;;;12.10;6.55;;;3.60;99.90;;;;;;6001833;23;20020;-37
2022/03/15 01:29:34;;;;;;;16.65;7.22;;;3.50;99.90;;;;;;5979083;23;20375;-37
2022/03/15 01:32:58;;;;;;;15.00;7.30;;;3.50;99.90;;;;;;6001023;23;20498;-37
2022/03/15 01:36:27;;;;;;;19.45;7.13;;;3.40;99.90;;;;;;6003156;23;20473;-37
2022/03/15 01:39:51;;;;;;;13.30;6.78;;;3.50;99.90;;;;;;5957156;23;20030;-37
2022/03/15 01:43:19;;;;;;;17.48;7.40;;;3.40;99.90;;;;;;5977943;23;20015;-37
2022/03/15 01:46:42;;;;;;;13.00;7.78;;;3.40;99.90;;;;;;5975982;23;20771;-37
2022/03/15 01:50:09;;;;;;;19.65;7.57;;;3.40;99.90;;;;;;5978381;23;20020;-37
2022/03/15 01:53:37;;;;;;;15.88;7.53;;;3.40;99.90;;;;;;6005140;23;20019;-37
2022/03/15 01:57:03;;;;;;;18.15;7.45;;;3.40;99.90;;;;;;5953822;23;20062;-37
2022/03/15 02:00:26;;;;;;;18.55;7.47;;;3.40;99.90;;;;;;5978182;23;20023;-37
2022/03/15 02:03:54;;;;;;;20.52;8.25;;;3.40;99.90;;;;;;6004750;23;20094;-37
2022/03/15 02:07:21;;;;;;;14.23;7.47;;;3.30;99.90;;;;;;6003609;23;20140;-37
2022/03/15 02:14:13;;;;;;;16.17;7.40;;;3.30;99.90;;;;;;5977543;23;20031;-37
2022/03/15 02:17:39;;;;;;;17.10;8.02;;;3.30;99.90;;;;;;5976320;23;20020;-37
2022/03/15 02:24:39;;;;;;;18.00;8.70;;;3.20;99.90;;;;;;6014307;23;20069;-37
2022/03/15 02:27:56;;;;;;;17.58;8.15;;;3.20;99.90;;;;;;6006869;23;20106;-37
2022/03/15 02:31:24;;;;;;;14.95;7.80;;;3.20;99.90;;;;;;6031679;23;20023;-37
2022/03/15 02:34:48;;;;;;;13.10;8.18;;;3.20;99.90;;;;;;6006651;23;20119;-37
2022/03/15 02:38:23;;;;;;;23.48;9.13;;;3.20;99.90;;;;;;6006729;23;20070;-37
2022/03/15 02:41:43;;;;;;;15.95;7.75;;;3.20;99.90;;;;;;6004419;23;20074;-37
2022/03/15 02:45:06;;;;;;;11.82;6.80;;;3.20;99.90;;;;;;6003458;23;20063;-37
2022/03/15 02:48:35;;;;;;;16.02;7.80;;;3.20;99.90;;;;;;6029780;23;20091;-37
2022/03/15 02:51:58;;;;;;;18.17;8.48;;;3.30;99.90;;;;;;5984702;23;20084;-37
2022/03/15 02:55:25;;;;;;;19.98;8.18;;;3.30;99.90;;;;;;6007618;23;20468;-37
2022/03/15 02:58:51;;;;;;;18.33;8.70;;;3.30;99.90;;;;;;6005909;23;20697;-37
2022/03/15 03:02:17;;;;;;;16.13;9.10;;;3.40;99.90;;;;;;6004541;23;20023;-37
2022/03/15 03:09:29;;;;;;;21.30;11.18;;;3.40;99.90;;;;;;6025304;23;20370;-37
2022/03/15 03:12:45;;;;;;;13.70;9.10;;;3.50;99.90;;;;;;6029066;23;20023;-37
2022/03/15 03:16:03;;;;;;;16.88;9.07;;;3.50;99.90;;;;;;6022022;23;20023;-38
2022/03/15 03:19:29;;;;;;;16.17;10.20;;;3.50;99.90;;;;;;6006838;23;20449;-37
2022/03/15 03:22:56;;;;;;;16.15;10.13;;;3.50;99.90;;;;;;6030907;23;20107;-37
2022/03/15 03:29:58;;;;;;;15.52;9.82;;;3.50;99.90;;;;;;6001153;23;20031;-37
2022/03/15 03:33:15;;;;;;;19.55;10.65;;;3.50;99.90;;;;;;6033037;23;20011;-37
2022/03/15 03:36:40;;;;;;;14.23;9.20;;;3.60;99.90;;;;;;6029031;23;20291;-37
2022/03/15 03:40:09;;;;;;;14.90;9.02;;;3.60;99.90;;;;;;6031434;23;20726;-37
2022/03/15 03:43:32;;;;;;;17.00;10.50;;;3.60;99.90;;;;;;5982332;23;20696;-37
2022/03/15 03:46:58;;;;;;;19.98;11.25;;;3.60;99.90;;;;;;6006513;23;20019;-37
2022/03/15 03:50:23;;;;;;;18.00;10.40;;;3.70;99.90;;;;;;6032007;23;20019;-38
2022/03/15 03:53:49;;;;;;;17.70;9.55;;;3.60;99.90;;;;;;6004260;23;20047;-37
2022/03/15 03:57:16;;;;;;;15.57;9.40;;;3.60;99.90;;;;;;5979530;23;20071;-37
2022/03/15 04:00:41;;;;;;;19.05;11.15;;;3.60;99.90;;;;;;6030143;23;20111;-37
2022/03/15 04:04:07;;;;;;;15.77;9.55;;;3.70;99.90;;;;;;6004737;23;20030;-37
2022/03/15 04:07:34;;;;;;;17.33;9.82;;;3.60;99.90;;;;;;5981814;23;20019;-38
2022/03/15 04:11:00;;;;;;;20.10;10.48;;;3.70;99.90;;;;;;6004174;23;20019;-38
2022/03/15 04:14:28;;;;;;;19.95;9.63;;;3.60;99.90;;;;;;6004492;23;20047;-37
2022/03/15 04:17:52;;;;;;;15.18;9.02;;;3.70;99.90;;;;;;6028170;23;20406;-38
2022/03/15 04:21:22;;;;;;;21.98;10.90;;;3.60;99.90;;;;;;6003637;23;20023;-37
2022/03/15 04:24:42;;;;;;;15.20;9.63;;;3.70;99.90;;;;;;5983061;23;20032;-37
2022/03/15 04:28:08;;;;;;;17.70;10.00;;;3.70;99.90;;;;;;6030901;23;20019;-37
2022/03/15 04:31:34;;;;;;;18.75;10.00;;;3.70;99.90;;;;;;5979416;23;20042;-37
2022/03/15 04:35:00;;;;;;;14.55;9.15;;;3.70;99.90;;;;;;5978695;23;20031;-37
2022/03/15 04:38:26;;;;;;;22.50;10.07;;;3.80;99.90;;;;;;5981156;23;20343;-38
2022/03/15 04:41:55;;;;;;;14.60;9.57;;;3.80;99.90;;;;;;6030670;23;20080;-37
2022/03/15 04:45:20;;;;;;;17.33;10.65;;;3.90;99.90;;;;;;5982536;23;20042;-38
2022/03/15 04:48:46;;;;;;;17.63;10.35;;;3.90;99.90;;;;;;5981635;23;20094;-37
2022/03/15 04:52:13;;;;;;;20.27;9.95;;;3.90;99.90;;;;;;5983084;23;20086;-37
2022/03/15 04:55:36;;;;;;;20.00;11.50;;;4.00;99.90;;;;;;6005739;23;20039;-38
2022/03/15 04:59:01;;;;;;;22.15;10.93;;;4.00;99.90;;;;;;6033832;23;20029;-38
2022/03/15 05:02:27;;;;;;;17.30;10.23;;;4.00;99.90;;;;;;6004849;23;20449;-37
2022/03/15 05:05:53;;;;;;;16.05;10.38;;;4.00;99.90;;;;;;6008457;23;20316;-38
2022/03/15 05:09:19;;;;;;;21.75;9.55;;;4.00;99.90;;;;;;5980744;23;20071;-38
2022/03/15 05:12:45;;;;;;;16.35;9.35;;;4.00;99.90;;;;;;6007030;23;20023;-37
2022/03/15 05:16:13;;;;;;;16.67;9.60;;;4.10;99.90;;;;;;6008156;23;20023;-38
2022/03/15 05:19:37;;;;;;;19.35;10.82;;;4.10;99.90;;;;;;5980280;23;20066;-37
2022/03/15 05:23:03;;;;;;;18.60;10.82;;;4.10;99.90;;;;;;5985425;23;20023;-37
2022/03/15 05:26:32;;;;;;;18.50;10.23;;;4.10;99.90;;;;;;6033713;23;20389;-38
2022/03/15 05:29:59;;;;;;;16.30;10.57;;;4.20;99.90;;;;;;5985412;23;20015;-37
2022/03/15 05:33:22;;;;;;;14.68;9.13;;;4.20;99.90;;;;;;6029391;23;20083;-37
2022/03/15 05:36:52;;;;;;;19.20;9.90;;;4.10;99.90;;;;;;6030473;23;20027;-38
2022/03/15 05:40:15;;;;;;;17.15;10.55;;;4.20;99.90;;;;;;6008536;23;20046;-38
2022/03/15 05:43:41;;;;;;;17.27;9.38;;;4.20;99.90;;;;;;5978737;23;20030;-37
2022/03/15 05:47:04;;;;;;;17.42;10.82;;;4.20;99.90;;;;;;6027930;23;20090;-38
2022/03/15 05:52:34;;;;;;;25.67;13.57;;;4.20;99.90;;;;;;6000750;23;20031;-37
2022/03/15 05:55:41;;;;;;;21.67;13.20;;;4.30;99.90;;;;;;5979099;23;20655;-38
2022/03/15 06:50:40;;;;;;;28.75;15.75;;;5.20;99.90;;;;;;6027045;23;20205;-38
2022/03/15 07:45:36;;;;;;;34.55;17.83;;;5.90;99.90;;;;;;5973814;23;20843;-45
2022/03/15 08:05:10;;;;;;;47.03;24.23;;;6.20;99.90;;;;;;6003322;23;20373;-45
2022/03/15 08:07:56;;;;;;;47.50;24.55;;;6.20;99.90;;;;;;5954035;23;20094;-45
2022/03/15 08:21:41;;;;;;;43.92;23.85;;;6.40;99.90;;;;;;5974411;23;20023;-45
2022/03/15 08:25:06;;;;;;;45.53;25.13;;;6.50;99.90;;;;;;6001950;23;20122;-45
2022/03/15 08:28:32;;;;;;;44.60;25.23;;;6.60;99.90;;;;;;6029375;23;20042;-45
2022/03/15 08:31:59;;;;;;;45.70;25.35;;;6.70;99.90;;;;;;5979846;23;20030;-45
2022/03/15 08:35:25;;;;;;;49.95;25.65;;;6.70;99.90;;;;;;6001053;23;20015;-44
2022/03/15 08:38:53;;;;;;;44.17;25.60;;;6.80;99.90;;;;;;6001228;23;20368;-45
2022/03/15 08:42:19;;;;;;;42.67;24.60;;;6.90;99.90;;;;;;5998723;23;20162;-45
2022/03/15 08:45:45;;;;;;;52.55;27.60;;;6.90;99.90;;;;;;6000995;23;20047;-45
2022/03/15 08:49:09;;;;;;;50.10;26.40;;;7.00;99.90;;;;;;6001275;23;20055;-46
2022/03/15 08:52:36;;;;;;;50.00;25.25;;;7.10;99.90;;;;;;6000183;23;20019;-45
2022/03/15 08:56:02;;;;;;;53.38;28.30;;;7.10;99.90;;;;;;6001394;23;20023;-45
2022/03/15 08:59:28;;;;;;;51.47;27.52;;;7.20;99.90;;;;;;6000507;23;20161;-45
2022/03/15 09:02:54;;;;;;;46.42;26.13;;;7.30;99.90;;;;;;5979052;23;20022;-45
2022/03/15 09:06:20;;;;;;;45.40;26.40;;;7.40;99.90;;;;;;5977809;23;20024;-48
2022/03/15 09:09:47;;;;;;;49.63;24.85;;;7.30;99.90;;;;;;6000224;23;20058;-45
2022/03/15 09:13:13;;;;;;;43.08;25.50;;;7.40;99.90;;;;;;6003876;23;20023;-45
2022/03/15 09:16:39;;;;;;;45.58;26.25;;;7.40;99.90;;;;;;6000051;23;20023;-46
2022/03/15 09:20:04;;;;;;;47.03;24.65;;;7.40;99.90;;;;;;6000398;23;20027;-46
2022/03/15 09:23:30;;;;;;;48.17;25.40;;;7.50;99.90;;;;;;5999617;23;20015;-45
2022/03/15 09:26:56;;;;;;;45.08;25.80;;;7.50;99.90;;;;;;5998077;23;20035;-45
2022/03/15 09:30:22;;;;;;;48.25;26.85;;;7.60;99.90;;;;;;6023435;23;20075;-46
2022/03/15 09:33:48;;;;;;;46.05;25.80;;;7.70;99.90;;;;;;6001039;23;20102;-47
2022/03/15 09:37:16;;;;;;;43.90;25.35;;;7.80;99.90;;;;;;5975249;23;20023;-45
2022/03/15 09:40:42;;;;;;;44.17;25.35;;;7.90;99.90;;;;;;6025668;23;20023;-46
2022/03/15 09:44:09;;;;;;;38.55;23.40;;;8.10;99.90;;;;;;6001083;23;20019;-46
2022/03/15 09:47:32;;;;;;;34.00;22.90;;;8.20;99.90;;;;;;6001251;23;20024;-45
2022/03/15 09:54:31;;;;;;;38.15;22.17;;;8.40;99.90;;;;;;6023616;23;20023;-46
2022/03/15 09:57:52;;;;;;;35.53;22.48;;;8.40;99.90;;;;;;6001540;23;20092;-46
2022/03/15 10:01:18;;;;;;;33.80;21.60;;;8.60;99.90;;;;;;5999458;23;20595;-46
2022/03/15 10:04:44;;;;;;;35.22;22.17;;;8.70;99.90;;;;;;5998567;23;20030;-45
2022/03/15 10:08:09;;;;;;;35.17;21.33;;;8.80;99.90;;;;;;6025600;23;20463;-46
2022/03/15 10:11:35;;;;;;;37.47;20.38;;;9.00;99.90;;;;;;6001254;23;20134;-46
2022/03/15 10:15:02;;;;;;;35.38;21.73;;;9.00;99.90;;;;;;6004899;23;20019;-45
2022/03/15 10:18:28;;;;;;;34.30;20.80;;;9.10;99.90;;;;;;6029541;23;20083;-46
2022/03/15 10:21:57;;;;;;;33.20;21.40;;;9.30;99.90;;;;;;6029367;23;20043;-46
2022/03/15 10:25:22;;;;;;;27.50;19.98;;;9.50;99.90;;;;;;6001749;23;20107;-46
2022/03/15 10:28:48;;;;;;;29.67;19.75;;;9.70;99.90;;;;;;6002896;23;20423;-46
2022/03/15 10:32:12;;;;;;;30.08;19.73;;;9.80;99.90;;;;;;6027339;23;20265;-47
2022/03/15 10:35:42;;;;;;;31.75;19.70;;;10.00;99.90;;;;;;6031173;23;20020;-46
2022/03/15 10:39:05;;;;;;;29.80;20.33;;;10.10;99.90;;;;;;6003488;23;20064;-46
2022/03/15 10:42:32;;;;;;;28.15;19.00;;;10.20;99.90;;;;;;6002847;23;20407;-46
2022/03/15 10:45:59;;;;;;;26.35;19.23;;;10.20;99.90;;;;;;6005598;23;20041;-46
2022/03/15 10:49:23;;;;;;;28.88;19.52;;;10.20;99.90;;;;;;6003626;23;20051;-46
2022/03/15 10:52:53;;;;;;;27.73;18.92;;;10.30;99.90;;;;;;6005370;23;20557;-46
2022/03/15 10:56:17;;;;;;;28.48;18.83;;;10.40;99.90;;;;;;5980286;23;20019;-45
2022/03/15 10:59:44;;;;;;;27.27;18.20;;;10.40;99.90;;;;;;6002899;23;20466;-46
2022/03/15 11:06:49;;;;;;;30.98;18.95;;;10.40;99.90;;;;;;5989276;23;20051;-46
2022/03/15 11:10:06;;;;;;;28.73;18.80;;;10.40;99.90;;;;;;5998806;23;20023;-47
2022/03/15 11:13:29;;;;;;;26.92;17.13;;;10.30;99.90;;;;;;6001552;23;20027;-48
2022/03/15 11:16:56;;;;;;;24.42;17.15;;;10.20;99.90;;;;;;5995173;23;20047;-46
2022/03/15 11:20:23;;;;;;;28.95;17.38;;;10.20;99.90;;;;;;6003348;23;20446;-46
2022/03/15 11:23:49;;;;;;;27.00;16.38;;;10.10;99.90;;;;;;5979003;23;20102;-46
2022/03/15 11:27:16;;;;;;;25.85;17.02;;;10.10;99.90;;;;;;5952117;23;20023;-46
2022/03/15 11:30:40;;;;;;;23.77;17.55;;;10.10;99.90;;;;;;5949939;23;20241;-48
2022/03/15 11:34:06;;;;;;;22.25;15.93;;;10.00;99.90;;;;;;5951372;23;20023;-46
2022/03/15 11:37:31;;;;;;;23.00;14.98;;;10.00;99.90;;;;;;6000670;23;20418;-45
2022/03/15 11:40:58;;;;;;;20.52;15.15;;;9.90;99.90;;;;;;5979995;23;20144;-46
2022/03/15 11:44:26;;;;;;;25.05;16.58;;;9.90;99.90;;;;;;6001005;23;20026;-44
2022/03/15 11:47:52;;;;;;;25.52;16.85;;;9.80;99.90;;;;;;5974018;23;20028;-46
2022/03/15 11:51:16;;;;;;;27.58;17.42;;;9.80;99.90;;;;;;5974851;23;20111;-47
2022/03/15 11:54:43;;;;;;;28.75;18.00;;;9.70;99.90;;;;;;5976654;23;20392;-45
2022/03/15 11:58:10;;;;;;;27.48;18.50;;;9.70;99.90;;;;;;5975508;23;20011;-45
2022/03/15 12:01:36;;;;;;;27.33;18.25;;;9.60;99.90;;;;;;5950571;23;20019;-45
2022/03/15 12:05:03;;;;;;;26.80;17.52;;;9.60;99.90;;;;;;5999356;23;20032;-45
2022/03/15 12:08:26;;;;;;;26.15;17.60;;;9.60;99.90;;;;;;5972189;23;20106;-45
2022/03/15 12:11:52;;;;;;;28.27;17.63;;;9.60;99.90;;;;;;5999220;23;20072;-45
2022/03/15 12:19:15;;;;;;;25.98;15.98;;;9.80;99.90;;;;;;5995880;23;20075;-45
2022/03/15 12:22:38;;;;;;;28.98;14.95;;;9.80;99.90;;;;;;5954602;23;20062;-45
2022/03/15 12:25:55;;;;;;;22.65;15.65;;;10.00;99.90;;;;;;5989757;23;20019;-48
2022/03/15 12:29:13;;;;;;;23.02;14.65;;;10.10;99.90;;;;;;6029391;23;20019;-47
2022/03/15 12:32:32;;;;;;;19.67;14.02;;;10.20;99.90;;;;;;5977326;23;20019;-46
2022/03/15 12:35:56;;;;;;;22.55;14.38;;;10.30;99.90;;;;;;5979463;23;20413;-46
2022/03/15 12:39:24;;;;;;;23.15;13.82;;;10.40;99.90;;;;;;6029647;23;20023;-46
2022/03/15 12:42:51;;;;;;;20.73;13.98;;;10.50;99.90;;;;;;6003184;23;20042;-46
2022/03/15 12:46:18;;;;;;;22.02;14.13;;;10.60;99.90;;;;;;5978586;23;20086;-46
2022/03/15 12:49:41;;;;;;;22.05;12.75;;;10.70;99.90;;;;;;6003307;23;20058;-45
2022/03/15 12:52:15;;;;;;;20.95;13.15;;;10.80;99.90;;;;;;6025427;23;20122;-46
2022/03/15 12:54:58;;;;;;;21.70;12.63;;;10.90;99.90;;;;;;6006778;23;20015;-47
2022/03/15 12:58:17;;;;;;;18.58;13.10;;;11.10;99.90;;;;;;6001121;23;20015;-46
2022/03/15 13:53:17;;;;;;;10.27;6.60;;;12.50;99.90;;;;;;5999231;23;20023;-46
2022/03/15 14:27:40;;;;;;;11.30;5.63;;;12.20;99.90;;;;;;6003024;23;20426;-45
2022/03/15 14:31:06;;;;;;;13.02;5.50;;;12.10;99.90;;;;;;5975479;23;20106;-44
2022/03/15 14:34:30;;;;;;;9.15;4.80;;;12.10;99.90;;;;;;6000944;23;20024;-46
2022/03/15 14:37:55;;;;;;;11.07;5.25;;;12.10;99.90;;;;;;6002410;23;20484;-45
2022/03/15 14:41:21;;;;;;;11.82;5.65;;;12.10;99.90;;;;;;5999614;23;20520;-45
2022/03/15 14:44:48;;;;;;;11.35;5.65;;;12.10;99.90;;;;;;5975581;23;20486;-48
2022/03/15 14:48:14;;;;;;;10.40;5.43;;;12.00;99.90;;;;;;5952847;23;20454;-46
2022/03/15 14:51:40;;;;;;;10.35;5.90;;;12.00;99.90;;;;;;5970321;23;20450;-45
2022/03/15 14:55:07;;;;;;;10.07;5.53;;;12.00;99.90;;;;;;5951721;23;20622;-45
2022/03/15 14:58:32;;;;;;;9.30;5.28;;;12.00;99.90;;;;;;5949902;23;20031;-45
2022/03/15 15:02:02;;;;;;;6.93;4.40;;;12.00;99.90;;;;;;5997109;23;20051;-47
2022/03/15 15:05:25;;;;;;;12.40;6.63;;;12.00;99.90;;;;;;5948629;23;20031;-45
2022/03/15 15:08:50;;;;;;;10.73;5.22;;;12.10;99.90;;;;;;5972355;23;20211;-45
2022/03/15 15:12:16;;;;;;;12.95;6.07;;;12.00;99.90;;;;;;5974328;23;20023;-44
2022/03/15 15:15:47;;;;;;;12.55;7.03;;;12.00;99.90;;;;;;5974458;23;20023;-46
2022/03/15 15:22:36;;;;;;;15.90;6.68;;;11.70;99.90;;;;;;5975054;23;19929;-46
2022/03/15 15:29:38;;;;;;;10.48;6.70;;;11.70;99.90;;;;;;6000878;23;20106;-45
2022/03/15 15:32:56;;;;;;;9.10;5.43;;;11.70;99.90;;;;;;5972942;23;20335;-45
2022/03/15 15:36:20;;;;;;;13.05;6.32;;;11.70;99.90;;;;;;6000412;23;20015;-45
2022/03/15 15:39:47;;;;;;;8.57;4.93;;;11.70;99.90;;;;;;5996866;23;20020;-44
2022/03/15 15:43:13;;;;;;;10.43;5.88;;;11.60;99.90;;;;;;5976751;23;20099;-46
2022/03/15 15:46:40;;;;;;;10.60;6.10;;;11.60;99.90;;;;;;6000587;23;20027;-46
2022/03/15 15:50:08;;;;;;;11.05;5.68;;;11.60;99.90;;;;;;5996808;23;20028;-45
2022/03/15 15:53:29;;;;;;;12.10;5.88;;;11.60;99.90;;;;;;6000034;23;20022;-46
2022/03/15 15:56:54;;;;;;;10.00;6.07;;;11.60;99.90;;;;;;5998692;23;20023;-46
2022/03/15 16:03:54;;;;;;;10.00;4.88;;;11.50;99.90;;;;;;5997299;23;20193;-47
2022/03/15 16:10:48;;;;;;;9.93;5.45;;;11.50;99.90;;;;;;5997765;23;20023;-46
2022/03/15 16:14:05;;;;;;;9.52;6.22;;;11.50;99.90;;;;;;6001920;23;20011;-45
2022/03/15 16:17:31;;;;;;;9.60;6.57;;;11.40;99.90;;;;;;5999741;23;20091;-45
2022/03/15 16:20:59;;;;;;;14.15;7.50;;;11.30;99.90;;;;;;5998300;23;20095;-48
2022/03/15 16:27:57;;;;;;;12.43;7.40;;;10.90;99.90;;;;;;5999636;23;20024;-46
2022/03/15 16:31:18;;;;;;;13.48;6.85;;;10.80;99.90;;;;;;5969753;23;20119;-45
2022/03/15 16:34:42;;;;;;;11.98;7.97;;;10.60;99.90;;;;;;5975517;23;20020;-45
2022/03/15 16:44:59;;;;;;;11.52;8.00;;;10.30;99.90;;;;;;6002328;23;19965;-45
2022/03/15 16:48:34;;;;;;;15.88;7.95;;;10.20;99.90;;;;;;5976086;23;20017;-47
2022/03/15 16:51:53;;;;;;;14.15;8.38;;;10.10;99.90;;;;;;6001379;23;20054;-45
2022/03/15 16:55:19;;;;;;;12.07;7.95;;;10.00;99.90;;;;;;5954037;23;20024;-46
2022/03/15 17:02:10;;;;;;;15.70;8.70;;;9.90;99.90;;;;;;5998370;23;20027;-46
2022/03/15 17:05:43;;;;;;;13.25;8.32;;;9.80;99.90;;;;;;5975962;23;20151;-46
2022/03/15 17:09:01;;;;;;;14.02;9.02;;;9.70;99.90;;;;;;5974002;23;20022;-45
2022/03/15 17:12:35;;;;;;;12.95;8.77;;;9.70;99.90;;;;;;5974478;23;20316;-48
2022/03/15 17:15:55;;;;;;;16.15;9.45;;;9.60;99.90;;;;;;5976385;23;20052;-46
2022/03/15 17:19:21;;;;;;;17.10;9.18;;;9.50;99.90;;;;;;5979447;23;20504;-45
2022/03/15 17:22:47;;;;;;;16.40;9.52;;;9.50;99.90;;;;;;5972838;23;20020;-45
2022/03/15 17:26:13;;;;;;;12.93;8.85;;;9.40;99.90;;;;;;6004697;23;20042;-46
2022/03/15 17:29:42;;;;;;;16.38;9.50;;;9.40;99.90;;;;;;5975037;23;20152;-45
2022/03/15 17:33:06;;;;;;;13.05;9.15;;;9.40;99.90;;;;;;5975350;23;20011;-45
2022/03/15 17:36:32;;;;;;;17.00;10.98;;;9.30;99.90;;;;;;5974633;23;20360;-46
2022/03/15 17:39:58;;;;;;;17.33;11.23;;;9.30;99.90;;;;;;5975610;23;20447;-45
2022/03/15 17:43:26;;;;;;;18.95;11.63;;;9.30;99.90;;;;;;5977560;23;20027;-46
2022/03/15 17:47:02;;;;;;;22.77;13.10;;;9.30;99.90;;;;;;5975041;23;20024;-45
2022/03/15 17:50:18;;;;;;;24.30;12.75;;;9.20;99.90;;;;;;6004101;23;20081;-45
2022/03/15 17:53:41;;;;;;;25.50;15.13;;;9.00;99.90;;;;;;6000279;23;20371;-45
2022/03/15 17:57:17;;;;;;;24.45;15.57;;;9.00;99.90;;;;;;5975786;23;20091;-45
2022/03/15 18:00:34;;;;;;;25.27;15.55;;;9.00;99.90;;;;;;5952206;23;20359;-45
2022/03/15 18:03:57;;;;;;;26.92;17.90;;;8.90;99.90;;;;;;5950218;23;20023;-45
2022/03/15 18:07:26;;;;;;;26.35;16.52;;;8.90;99.90;;;;;;6002446;23;20176;-45
2022/03/15 18:10:56;;;;;;;30.30;18.08;;;8.90;99.90;;;;;;5954981;23;20462;-46
2022/03/15 18:14:20;;;;;;;26.80;17.15;;;8.80;99.90;;;;;;5996655;23;20023;-46
2022/03/15 18:17:44;;;;;;;25.00;17.92;;;8.80;99.90;;;;;;5975454;23;20722;-45
2022/03/15 18:21:13;;;;;;;28.73;17.55;;;8.70;99.90;;;;;;5975511;23;20071;-45
2022/03/15 18:24:38;;;;;;;26.73;18.05;;;8.70;99.90;;;;;;5976018;23;20024;-45
2022/03/15 18:27:09;;;;;;;26.73;17.13;;;8.70;99.90;;;;;;5994961;23;20118;-46
2022/03/15 18:29:45;;;;;;;26.63;18.55;;;8.60;99.90;;;;;;6001989;23;20015;-46
2022/03/15 18:40:05;;;;;;;33.83;19.23;;;8.60;99.90;;;;;;5995527;23;20471;-45
2022/03/15 19:07:35;;;;;;;28.88;17.95;;;8.40;99.90;;;;;;5999984;23;20032;-45
2022/03/15 19:28:13;;;;;;;34.22;18.75;;;8.10;99.90;;;;;;5995722;23;20047;-46
2022/03/15 19:35:25;;;;;;;33.97;19.50;;;8.00;99.90;;;;;;6001102;23;20027;-45
2022/03/15 19:38:43;;;;;;;33.05;19.52;;;8.00;99.90;;;;;;5975636;23;20046;-44
2022/03/15 19:42:09;;;;;;;30.08;18.95;;;8.00;99.90;;;;;;5975259;23;20020;-44
2022/03/15 19:45:27;;;;;;;33.08;18.65;;;7.90;99.90;;;;;;5997182;23;20062;-44
2022/03/15 19:48:49;;;;;;;35.05;18.70;;;7.90;99.90;;;;;;5977615;23;20019;-47
2022/03/15 19:52:21;;;;;;;33.78;18.90;;;7.90;99.90;;;;;;5996596;23;20019;-44
2022/03/15 19:55:41;;;;;;;36.67;19.05;;;7.90;99.90;;;;;;5998347;23;20038;-44
2022/03/15 19:59:08;;;;;;;38.03;19.50;;;7.90;99.90;;;;;;6001969;23;20024;-45
2022/03/15 20:02:37;;;;;;;33.50;20.50;;;7.90;99.90;;;;;;5973766;23;20138;-44
2022/03/15 20:06:03;;;;;;;37.92;19.25;;;7.90;99.90;;;;;;5996894;23;20046;-44
2022/03/15 20:09:28;;;;;;;37.28;22.15;;;7.90;99.90;;;;;;6001316;23;20027;-45
2022/03/15 20:13:20;;;;;;;37.67;20.48;;;7.80;99.90;;;;;;5996843;23;20037;-45
2022/03/15 20:19:58;;;;;;;41.72;21.63;;;7.70;99.90;;;;;;6001613;23;20022;-46
2022/03/15 20:23:10;;;;;;;41.83;23.17;;;7.70;99.90;;;;;;5977984;23;20047;-44
2022/03/15 20:30:03;;;;;;;37.15;22.00;;;7.60;99.90;;;;;;6029383;23;20062;-45
2022/03/15 20:47:14;;;;;;;38.83;22.47;;;7.40;99.90;;;;;;6028590;23;20041;-45
2022/03/15 20:54:07;;;;;;;41.20;22.10;;;7.40;99.90;;;;;;6004294;23;20016;-44
2022/03/15 20:57:33;;;;;;;39.85;23.35;;;7.40;99.90;;;;;;6001936;23;20063;-44
2022/03/15 21:00:59;;;;;;;40.95;22.95;;;7.40;99.90;;;;;;6002013;23;20019;-44
2022/03/15 21:04:22;;;;;;;38.20;21.88;;;7.40;99.90;;;;;;6003709;23;20071;-44
2022/03/15 21:07:52;;;;;;;44.95;25.55;;;7.40;99.90;;;;;;6002288;23;20126;-45
2022/03/15 21:11:12;;;;;;;42.67;24.70;;;7.40;99.90;;;;;;5981611;23;20035;-44
2022/03/15 21:14:42;;;;;;;42.05;24.50;;;7.40;99.90;;;;;;6003777;23;20059;-44
2022/03/15 21:18:09;;;;;;;43.83;24.55;;;7.40;99.90;;;;;;5977521;23;20096;-44
2022/03/15 21:21:32;;;;;;;43.42;24.63;;;7.40;99.90;;;;;;6001957;23;20019;-45
2022/03/15 21:25:01;;;;;;;38.10;23.13;;;7.40;99.90;;;;;;6004048;23;20474;-45
2022/03/15 21:28:25;;;;;;;42.17;23.63;;;7.40;99.90;;;;;;6025687;23;20023;-44
2022/03/15 21:31:49;;;;;;;39.53;22.48;;;7.40;99.90;;;;;;5982781;23;20015;-45
2022/03/15 21:35:23;;;;;;;39.70;22.83;;;7.30;99.90;;;;;;6006714;23;20030;-44
2022/03/15 21:42:11;;;;;;;36.42;21.67;;;7.70;99.90;;;;;;6032353;23;20449;-45
2022/03/15 21:52:30;;;;;;;42.47;24.08;;;7.20;99.90;;;;;;6002986;23;20050;-46
2022/03/15 21:55:52;;;;;;;43.67;24.63;;;7.20;99.90;;;;;;6002604;23;20442;-45
2022/03/15 22:08:32;;;;;;;46.55;27.15;;;6.90;99.90;;;;;;6031470;23;20469;-46
2022/03/15 22:11:21;;;;;;;53.30;29.83;;;7.20;99.90;;;;;;5980609;23;20054;-44
2022/03/15 23:18:20;;;;;;;44.70;26.38;;;6.10;99.90;;;;;;6002688;23;20506;-44
2022/03/15 23:32:09;;;;;;;43.05;24.67;;;5.80;99.90;;;;;;5974508;23;20023;-44
2022/03/15 23:35:27;;;;;;;40.40;23.58;;;5.80;99.90;;;;;;5998513;23;20024;-44
